sensor_id;sensor_type;location;lat;lon;timestamp;P1;durP1;ratioP1;P2;durP2;ratioP2
30862;SDS011;17573;55.922;37.540;2023-03-14T00:01:57;9.02;;;5.75;;
30862;SDS011;17573;55.922;37.540;2023-03-14T00:04:24;13.45;;;5.40;;
30862;SDS011;17573;55.922;37.540;2023-03-14T00:06:50;10.63;;;5.60;;
30862;SDS011;17573;55.922;37.540;2023-03-14T00:09:16;9.02;;;5.32;;
30862;SDS011;17573;55.922;37.540;2023-03-14T00:11:42;8.90;;;5.10;;
30862;SDS011;17573;55.922;37.540;2023-03-14T00:14:08;10.32;;;5.55;;
30862;SDS011;17573;55.922;37.540;2023-03-14T00:16:34;9.80;;;5.82;;
30862;SDS011;17573;55.922;37.540;2023-03-14T00:19:00;6.45;;;4.13;;
30862;SDS011;17573;55.922;37.540;2023-03-14T00:21:26;6.45;;;5.22;;
30862;SDS011;17573;55.922;37.540;2023-03-14T00:23:52;9.23;;;5.78;;
30862;SDS011;17573;55.922;37.540;2023-03-14T00:26:18;8.43;;;5.15;;
30862;SDS011;17573;55.922;37.540;2023-03-14T00:28:46;5.38;;;4.32;;
30862;SDS011;17573;55.922;37.540;2023-03-14T00:31:16;11.98;;;6.88;;
30862;SDS011;17573;55.922;37.540;2023-03-14T00:33:42;10.85;;;5.65;;
30862;SDS011;17573;55.922;37.540;2023-03-14T00:36:10;7.85;;;4.85;;
30862;SDS011;17573;55.922;37.540;2023-03-14T00:38:38;6.18;;;4.72;;
30862;SDS011;17573;55.922;37.540;2023-03-14T00:41:05;8.52;;;5.25;;
30862;SDS011;17573;55.922;37.540;2023-03-14T00:43:35;12.77;;;6.05;;
30862;SDS011;17573;55.922;37.540;2023-03-14T00:46:01;11.13;;;5.15;;
30862;SDS011;17573;55.922;37.540;2023-03-14T00:48:27;8.90;;;5.75;;
30862;SDS011;17573;55.922;37.540;2023-03-14T00:50:53;15.18;;;6.68;;
30862;SDS011;17573;55.922;37.540;2023-03-14T00:53:19;9.05;;;6.30;;
30862;SDS011;17573;55.922;37.540;2023-03-14T00:55:45;9.48;;;5.93;;
30862;SDS011;17573;55.922;37.540;2023-03-14T00:58:12;8.23;;;5.75;;
30862;SDS011;17573;55.922;37.540;2023-03-14T01:00:39;10.45;;;6.47;;
30862;SDS011;17573;55.922;37.540;2023-03-14T01:03:05;11.23;;;6.40;;
30862;SDS011;17573;55.922;37.540;2023-03-14T01:05:31;12.68;;;7.97;;
30862;SDS011;17573;55.922;37.540;2023-03-14T01:07:57;9.13;;;6.18;;
30862;SDS011;17573;55.922;37.540;2023-03-14T01:10:23;10.10;;;6.70;;
30862;SDS011;17573;55.922;37.540;2023-03-14T01:12:49;9.00;;;6.43;;
30862;SDS011;17573;55.922;37.540;2023-03-14T01:15:15;9.63;;;6.07;;
30862;SDS011;17573;55.922;37.540;2023-03-14T01:17:41;10.43;;;6.45;;
30862;SDS011;17573;55.922;37.540;2023-03-14T01:20:08;11.07;;;6.07;;
30862;SDS011;17573;55.922;37.540;2023-03-14T01:22:37;12.90;;;6.40;;
30862;SDS011;17573;55.922;37.540;2023-03-14T01:25:09;5.45;;;4.95;;
30862;SDS011;17573;55.922;37.540;2023-03-14T01:27:37;11.38;;;6.18;;
30862;SDS011;17573;55.922;37.540;2023-03-14T01:30:04;18.00;;;6.70;;
30862;SDS011;17573;55.922;37.540;2023-03-14T01:32:31;13.93;;;5.57;;
30862;SDS011;17573;55.922;37.540;2023-03-14T01:34:57;7.95;;;5.25;;
30862;SDS011;17573;55.922;37.540;2023-03-14T01:37:23;12.35;;;6.90;;
30862;SDS011;17573;55.922;37.540;2023-03-14T01:39:49;8.20;;;5.15;;
30862;SDS011;17573;55.922;37.540;2023-03-14T01:42:15;19.70;;;7.53;;
30862;SDS011;17573;55.922;37.540;2023-03-14T01:44:55;15.07;;;6.55;;
30862;SDS011;17573;55.922;37.540;2023-03-14T01:47:25;12.15;;;7.40;;
30862;SDS011;17573;55.922;37.540;2023-03-14T01:49:53;14.23;;;6.22;;
30862;SDS011;17573;55.922;37.540;2023-03-14T01:52:27;9.43;;;6.90;;
30862;SDS011;17573;55.922;37.540;2023-03-14T01:54:58;13.75;;;5.55;;
30862;SDS011;17573;55.922;37.540;2023-03-14T01:57:30;21.20;;;7.40;;
30862;SDS011;17573;55.922;37.540;2023-03-14T02:00:11;12.20;;;7.68;;
30862;SDS011;17573;55.922;37.540;2023-03-14T02:02:40;9.77;;;6.95;;
30862;SDS011;17573;55.922;37.540;2023-03-14T02:05:10;4.88;;;4.47;;
30862;SDS011;17573;55.922;37.540;2023-03-14T02:07:46;11.38;;;6.15;;
30862;SDS011;17573;55.922;37.540;2023-03-14T02:10:20;10.85;;;6.10;;
30862;SDS011;17573;55.922;37.540;2023-03-14T02:12:48;6.63;;;5.85;;
30862;SDS011;17573;55.922;37.540;2023-03-14T02:15:37;9.55;;;6.95;;
30862;SDS011;17573;55.922;37.540;2023-03-14T02:18:30;6.53;;;5.65;;
30862;SDS011;17573;55.922;37.540;2023-03-14T02:29:54;11.57;;;7.75;;
30862;SDS011;17573;55.922;37.540;2023-03-14T02:32:22;8.82;;;6.18;;
30862;SDS011;17573;55.922;37.540;2023-03-14T02:34:51;13.77;;;9.05;;
30862;SDS011;17573;55.922;37.540;2023-03-14T02:37:19;11.13;;;7.38;;
30862;SDS011;17573;55.922;37.540;2023-03-14T02:39:46;12.50;;;6.15;;
30862;SDS011;17573;55.922;37.540;2023-03-14T02:42:15;16.75;;;8.05;;
30862;SDS011;17573;55.922;37.540;2023-03-14T02:47:16;11.63;;;5.60;;
30862;SDS011;17573;55.922;37.540;2023-03-14T02:49:44;9.93;;;7.97;;
30862;SDS011;17573;55.922;37.540;2023-03-14T02:52:10;19.92;;;8.25;;
30862;SDS011;17573;55.922;37.540;2023-03-14T02:54:36;15.75;;;8.93;;
30862;SDS011;17573;55.922;37.540;2023-03-14T02:57:02;12.60;;;8.13;;
30862;SDS011;17573;55.922;37.540;2023-03-14T02:59:29;12.43;;;6.32;;
30862;SDS011;17573;55.922;37.540;2023-03-14T03:01:59;11.55;;;7.65;;
30862;SDS011;17573;55.922;37.540;2023-03-14T03:04:25;9.77;;;7.72;;
30862;SDS011;17573;55.922;37.540;2023-03-14T03:06:51;6.05;;;5.55;;
30862;SDS011;17573;55.922;37.540;2023-03-14T03:09:17;11.07;;;4.93;;
30862;SDS011;17573;55.922;37.540;2023-03-14T03:11:42;12.98;;;8.52;;
30862;SDS011;17573;55.922;37.540;2023-03-14T03:14:14;18.95;;;8.35;;
30862;SDS011;17573;55.922;37.540;2023-03-14T03:16:39;12.20;;;8.88;;
30862;SDS011;17573;55.922;37.540;2023-03-14T03:19:05;8.07;;;5.45;;
30862;SDS011;17573;55.922;37.540;2023-03-14T03:21:31;13.57;;;10.10;;
30862;SDS011;17573;55.922;37.540;2023-03-14T03:23:57;15.20;;;9.98;;
30862;SDS011;17573;55.922;37.540;2023-03-14T03:26:23;12.65;;;10.02;;
30862;SDS011;17573;55.922;37.540;2023-03-14T03:28:50;8.43;;;7.05;;
30862;SDS011;17573;55.922;37.540;2023-03-14T03:31:17;12.27;;;8.57;;
30862;SDS011;17573;55.922;37.540;2023-03-14T03:33:43;12.43;;;7.53;;
30862;SDS011;17573;55.922;37.540;2023-03-14T03:36:09;18.38;;;7.15;;
30862;SDS011;17573;55.922;37.540;2023-03-14T03:38:38;11.85;;;8.70;;
30862;SDS011;17573;55.922;37.540;2023-03-14T03:41:05;11.65;;;7.55;;
30862;SDS011;17573;55.922;37.540;2023-03-14T03:43:32;14.65;;;10.32;;
30862;SDS011;17573;55.922;37.540;2023-03-14T03:46:03;9.00;;;7.68;;
30862;SDS011;17573;55.922;37.540;2023-03-14T03:48:30;11.27;;;7.82;;
30862;SDS011;17573;55.922;37.540;2023-03-14T03:51:00;19.02;;;9.25;;
30862;SDS011;17573;55.922;37.540;2023-03-14T03:53:26;19.48;;;9.23;;
30862;SDS011;17573;55.922;37.540;2023-03-14T03:55:52;12.50;;;9.52;;
30862;SDS011;17573;55.922;37.540;2023-03-14T03:58:18;11.60;;;9.98;;
30862;SDS011;17573;55.922;37.540;2023-03-14T04:00:44;34.85;;;9.65;;
30862;SDS011;17573;55.922;37.540;2023-03-14T04:03:11;16.73;;;10.60;;
30862;SDS011;17573;55.922;37.540;2023-03-14T04:05:37;17.67;;;9.07;;
30862;SDS011;17573;55.922;37.540;2023-03-14T04:08:07;11.57;;;9.00;;
30862;SDS011;17573;55.922;37.540;2023-03-14T04:10:34;13.75;;;9.55;;
30862;SDS011;17573;55.922;37.540;2023-03-14T04:13:05;12.07;;;9.23;;
30862;SDS011;17573;55.922;37.540;2023-03-14T04:15:33;18.35;;;7.85;;
30862;SDS011;17573;55.922;37.540;2023-03-14T04:18:02;11.05;;;8.55;;
30862;SDS011;17573;55.922;37.540;2023-03-14T04:20:29;15.48;;;10.15;;
30862;SDS011;17573;55.922;37.540;2023-03-14T04:22:55;20.05;;;8.55;;
30862;SDS011;17573;55.922;37.540;2023-03-14T04:25:22;9.93;;;8.13;;
30862;SDS011;17573;55.922;37.540;2023-03-14T04:27:53;12.23;;;8.40;;
30862;SDS011;17573;55.922;37.540;2023-03-14T04:30:23;10.40;;;7.95;;
30862;SDS011;17573;55.922;37.540;2023-03-14T04:32:52;11.20;;;7.78;;
30862;SDS011;17573;55.922;37.540;2023-03-14T04:35:20;11.80;;;8.40;;
30862;SDS011;17573;55.922;37.540;2023-03-14T04:37:47;12.95;;;9.43;;
30862;SDS011;17573;55.922;37.540;2023-03-14T04:40:15;13.98;;;9.95;;
30862;SDS011;17573;55.922;37.540;2023-03-14T04:42:41;11.20;;;8.27;;
30862;SDS011;17573;55.922;37.540;2023-03-14T04:45:08;13.60;;;8.68;;
30862;SDS011;17573;55.922;37.540;2023-03-14T04:47:35;15.02;;;9.63;;
30862;SDS011;17573;55.922;37.540;2023-03-14T04:50:02;11.75;;;8.82;;
30862;SDS011;17573;55.922;37.540;2023-03-14T04:52:28;11.32;;;9.43;;
30862;SDS011;17573;55.922;37.540;2023-03-14T04:54:55;16.83;;;9.43;;
30862;SDS011;17573;55.922;37.540;2023-03-14T04:57:23;8.40;;;7.57;;
30862;SDS011;17573;55.922;37.540;2023-03-14T04:59:49;13.77;;;10.45;;
30862;SDS011;17573;55.922;37.540;2023-03-14T05:02:35;18.00;;;10.70;;
30862;SDS011;17573;55.922;37.540;2023-03-14T05:05:21;19.05;;;9.55;;
30862;SDS011;17573;55.922;37.540;2023-03-14T05:08:10;16.58;;;10.63;;
30862;SDS011;17573;55.922;37.540;2023-03-14T05:10:55;10.75;;;9.15;;
30862;SDS011;17573;55.922;37.540;2023-03-14T05:13:40;12.77;;;9.15;;
30862;SDS011;17573;55.922;37.540;2023-03-14T05:16:44;10.52;;;8.85;;
30862;SDS011;17573;55.922;37.540;2023-03-14T05:19:29;10.13;;;8.23;;
30862;SDS011;17573;55.922;37.540;2023-03-14T05:22:03;11.05;;;8.10;;
30862;SDS011;17573;55.922;37.540;2023-03-14T05:24:47;11.70;;;8.55;;
30862;SDS011;17573;55.922;37.540;2023-03-14T05:27:32;11.90;;;10.05;;
30862;SDS011;17573;55.922;37.540;2023-03-14T05:30:18;13.10;;;9.27;;
30862;SDS011;17573;55.922;37.540;2023-03-14T05:33:01;17.02;;;9.80;;
30862;SDS011;17573;55.922;37.540;2023-03-14T05:35:48;12.10;;;9.93;;
30862;SDS011;17573;55.922;37.540;2023-03-14T05:38:34;17.60;;;9.60;;
30862;SDS011;17573;55.922;37.540;2023-03-14T05:41:07;13.75;;;8.13;;
30862;SDS011;17573;55.922;37.540;2023-03-14T05:43:33;14.63;;;7.05;;
30862;SDS011;17573;55.922;37.540;2023-03-14T05:46:19;12.60;;;9.30;;
30862;SDS011;17573;55.922;37.540;2023-03-14T05:49:12;13.45;;;8.93;;
30862;SDS011;17573;55.922;37.540;2023-03-14T05:51:58;8.73;;;7.82;;
30862;SDS011;17573;55.922;37.540;2023-03-14T05:54:44;12.13;;;8.35;;
30862;SDS011;17573;55.922;37.540;2023-03-14T05:57:35;14.77;;;9.57;;
30862;SDS011;17573;55.922;37.540;2023-03-14T06:00:20;10.65;;;9.02;;
30862;SDS011;17573;55.922;37.540;2023-03-14T06:03:04;16.75;;;8.88;;
30862;SDS011;17573;55.922;37.540;2023-03-14T06:05:34;16.65;;;9.50;;
30862;SDS011;17573;55.922;37.540;2023-03-14T06:08:01;17.63;;;7.40;;
30862;SDS011;17573;55.922;37.540;2023-03-14T06:10:29;7.53;;;6.45;;
30862;SDS011;17573;55.922;37.540;2023-03-14T06:12:56;9.70;;;7.38;;
30862;SDS011;17573;55.922;37.540;2023-03-14T06:15:21;9.65;;;7.28;;
30862;SDS011;17573;55.922;37.540;2023-03-14T06:17:50;9.45;;;6.65;;
30862;SDS011;17573;55.922;37.540;2023-03-14T06:20:16;9.30;;;7.53;;
30862;SDS011;17573;55.922;37.540;2023-03-14T06:22:42;9.32;;;6.57;;
30862;SDS011;17573;55.922;37.540;2023-03-14T06:25:11;15.20;;;8.38;;
30862;SDS011;17573;55.922;37.540;2023-03-14T06:27:38;11.95;;;7.32;;
30862;SDS011;17573;55.922;37.540;2023-03-14T06:30:04;26.60;;;8.25;;
30862;SDS011;17573;55.922;37.540;2023-03-14T06:32:31;10.18;;;6.50;;
30862;SDS011;17573;55.922;37.540;2023-03-14T06:35:01;19.13;;;8.15;;
30862;SDS011;17573;55.922;37.540;2023-03-14T06:37:32;6.90;;;5.57;;
30862;SDS011;17573;55.922;37.540;2023-03-14T06:39:58;11.65;;;7.22;;
30862;SDS011;17573;55.922;37.540;2023-03-14T06:42:53;8.25;;;6.75;;
30862;SDS011;17573;55.922;37.540;2023-03-14T06:45:21;10.27;;;6.28;;
30862;SDS011;17573;55.922;37.540;2023-03-14T06:47:47;29.67;;;6.90;;
30862;SDS011;17573;55.922;37.540;2023-03-14T06:50:14;8.38;;;5.60;;
30862;SDS011;17573;55.922;37.540;2023-03-14T06:52:41;16.83;;;8.02;;
30862;SDS011;17573;55.922;37.540;2023-03-14T06:55:13;22.63;;;8.48;;
30862;SDS011;17573;55.922;37.540;2023-03-14T06:57:40;14.27;;;7.20;;
30862;SDS011;17573;55.922;37.540;2023-03-14T07:00:07;13.25;;;6.03;;
30862;SDS011;17573;55.922;37.540;2023-03-14T07:02:34;13.02;;;7.30;;
30862;SDS011;17573;55.922;37.540;2023-03-14T07:05:01;12.35;;;7.97;;
30862;SDS011;17573;55.922;37.540;2023-03-14T07:07:28;14.10;;;7.40;;
30862;SDS011;17573;55.922;37.540;2023-03-14T07:09:54;17.48;;;7.57;;
30862;SDS011;17573;55.922;37.540;2023-03-14T07:12:20;12.10;;;6.82;;
30862;SDS011;17573;55.922;37.540;2023-03-14T07:14:46;11.20;;;6.55;;
30862;SDS011;17573;55.922;37.540;2023-03-14T07:17:11;14.93;;;8.20;;
30862;SDS011;17573;55.922;37.540;2023-03-14T07:19:37;17.65;;;7.15;;
30862;SDS011;17573;55.922;37.540;2023-03-14T07:22:06;10.05;;;7.07;;
30862;SDS011;17573;55.922;37.540;2023-03-14T07:24:32;15.30;;;5.97;;
30862;SDS011;17573;55.922;37.540;2023-03-14T07:26:59;14.90;;;7.07;;
30862;SDS011;17573;55.922;37.540;2023-03-14T07:29:24;11.95;;;6.60;;
30862;SDS011;17573;55.922;37.540;2023-03-14T07:31:51;11.13;;;6.10;;
30862;SDS011;17573;55.922;37.540;2023-03-14T07:34:19;9.43;;;6.53;;
30862;SDS011;17573;55.922;37.540;2023-03-14T07:36:45;13.52;;;7.13;;
30862;SDS011;17573;55.922;37.540;2023-03-14T07:39:11;22.38;;;9.82;;
30862;SDS011;17573;55.922;37.540;2023-03-14T07:41:45;7.20;;;5.65;;
30862;SDS011;17573;55.922;37.540;2023-03-14T07:44:29;14.85;;;6.30;;
30862;SDS011;17573;55.922;37.540;2023-03-14T07:46:55;7.57;;;5.70;;
30862;SDS011;17573;55.922;37.540;2023-03-14T07:49:21;9.63;;;6.43;;
30862;SDS011;17573;55.922;37.540;2023-03-14T07:51:47;12.07;;;6.60;;
30862;SDS011;17573;55.922;37.540;2023-03-14T07:54:13;7.60;;;5.00;;
30862;SDS011;17573;55.922;37.540;2023-03-14T07:56:39;20.80;;;6.40;;
30862;SDS011;17573;55.922;37.540;2023-03-14T07:59:05;9.43;;;6.43;;
30862;SDS011;17573;55.922;37.540;2023-03-14T08:01:31;10.07;;;6.82;;
30862;SDS011;17573;55.922;37.540;2023-03-14T08:03:57;6.85;;;5.13;;
30862;SDS011;17573;55.922;37.540;2023-03-14T08:06:23;11.70;;;6.30;;
30862;SDS011;17573;55.922;37.540;2023-03-14T08:08:48;17.48;;;6.40;;
30862;SDS011;17573;55.922;37.540;2023-03-14T08:11:14;10.48;;;6.05;;
30862;SDS011;17573;55.922;37.540;2023-03-14T08:13:40;13.82;;;6.30;;
30862;SDS011;17573;55.922;37.540;2023-03-14T08:16:06;8.52;;;6.28;;
30862;SDS011;17573;55.922;37.540;2023-03-14T08:18:32;12.55;;;6.15;;
30862;SDS011;17573;55.922;37.540;2023-03-14T08:20:58;8.15;;;5.30;;
30862;SDS011;17573;55.922;37.540;2023-03-14T08:23:24;15.95;;;7.78;;
30862;SDS011;17573;55.922;37.540;2023-03-14T08:25:50;19.30;;;7.10;;
30862;SDS011;17573;55.922;37.540;2023-03-14T08:28:17;16.77;;;6.85;;
30862;SDS011;17573;55.922;37.540;2023-03-14T08:30:43;10.52;;;6.70;;
30862;SDS011;17573;55.922;37.540;2023-03-14T08:33:09;15.40;;;7.13;;
30862;SDS011;17573;55.922;37.540;2023-03-14T08:35:36;11.68;;;6.30;;
30862;SDS011;17573;55.922;37.540;2023-03-14T08:38:03;19.00;;;7.10;;
30862;SDS011;17573;55.922;37.540;2023-03-14T08:40:29;8.88;;;5.78;;
30862;SDS011;17573;55.922;37.540;2023-03-14T08:42:55;9.85;;;6.20;;
30862;SDS011;17573;55.922;37.540;2023-03-14T08:45:20;13.63;;;6.28;;
30862;SDS011;17573;55.922;37.540;2023-03-14T08:47:46;11.07;;;5.60;;
30862;SDS011;17573;55.922;37.540;2023-03-14T08:50:13;10.70;;;7.28;;
30862;SDS011;17573;55.922;37.540;2023-03-14T08:52:38;12.75;;;6.70;;
30862;SDS011;17573;55.922;37.540;2023-03-14T08:55:06;10.43;;;6.57;;
30862;SDS011;17573;55.922;37.540;2023-03-14T08:57:33;14.25;;;7.30;;
30862;SDS011;17573;55.922;37.540;2023-03-14T08:59:59;14.05;;;7.00;;
30862;SDS011;17573;55.922;37.540;2023-03-14T09:02:25;9.20;;;5.97;;
30862;SDS011;17573;55.922;37.540;2023-03-14T09:04:51;9.85;;;6.53;;
30862;SDS011;17573;55.922;37.540;2023-03-14T09:07:18;8.32;;;6.43;;
30862;SDS011;17573;55.922;37.540;2023-03-14T09:09:44;9.50;;;6.80;;
30862;SDS011;17573;55.922;37.540;2023-03-14T09:12:10;17.63;;;7.20;;
30862;SDS011;17573;55.922;37.540;2023-03-14T09:14:37;15.85;;;6.90;;
30862;SDS011;17573;55.922;37.540;2023-03-14T09:17:03;12.73;;;6.70;;
30862;SDS011;17573;55.922;37.540;2023-03-14T09:19:29;9.10;;;6.00;;
30862;SDS011;17573;55.922;37.540;2023-03-14T09:21:55;14.88;;;6.72;;
30862;SDS011;17573;55.922;37.540;2023-03-14T09:24:21;24.40;;;7.35;;
30862;SDS011;17573;55.922;37.540;2023-03-14T09:26:47;9.93;;;6.15;;
30862;SDS011;17573;55.922;37.540;2023-03-14T09:29:12;13.05;;;6.20;;
30862;SDS011;17573;55.922;37.540;2023-03-14T09:31:38;12.15;;;6.57;;
30862;SDS011;17573;55.922;37.540;2023-03-14T09:34:04;14.45;;;6.72;;
30862;SDS011;17573;55.922;37.540;2023-03-14T09:36:30;12.45;;;6.70;;
30862;SDS011;17573;55.922;37.540;2023-03-14T09:38:56;9.25;;;6.03;;
30862;SDS011;17573;55.922;37.540;2023-03-14T09:41:26;6.55;;;5.80;;
30862;SDS011;17573;55.922;37.540;2023-03-14T09:46:46;15.45;;;5.93;;
30862;SDS011;17573;55.922;37.540;2023-03-14T09:49:20;13.07;;;6.75;;
30862;SDS011;17573;55.922;37.540;2023-03-14T09:51:51;10.77;;;6.22;;
30862;SDS011;17573;55.922;37.540;2023-03-14T09:54:40;11.00;;;6.30;;
30862;SDS011;17573;55.922;37.540;2023-03-14T09:57:08;9.82;;;6.43;;
30862;SDS011;17573;55.922;37.540;2023-03-14T09:59:38;8.52;;;6.13;;
30862;SDS011;17573;55.922;37.540;2023-03-14T10:02:20;14.98;;;8.13;;
30862;SDS011;17573;55.922;37.540;2023-03-14T10:04:48;18.70;;;6.70;;
30862;SDS011;17573;55.922;37.540;2023-03-14T10:07:17;7.90;;;6.45;;
30862;SDS011;17573;55.922;37.540;2023-03-14T10:09:48;9.00;;;5.68;;
30862;SDS011;17573;55.922;37.540;2023-03-14T10:12:15;14.50;;;6.70;;
30862;SDS011;17573;55.922;37.540;2023-03-14T10:14:47;11.85;;;6.90;;
30862;SDS011;17573;55.922;37.540;2023-03-14T10:17:17;16.08;;;7.10;;
30862;SDS011;17573;55.922;37.540;2023-03-14T10:19:53;8.32;;;5.75;;
30862;SDS011;17573;55.922;37.540;2023-03-14T10:22:24;10.40;;;7.22;;
30862;SDS011;17573;55.922;37.540;2023-03-14T10:24:53;14.65;;;7.32;;
30862;SDS011;17573;55.922;37.540;2023-03-14T10:27:28;14.02;;;6.35;;
30862;SDS011;17573;55.922;37.540;2023-03-14T10:29:57;13.50;;;7.13;;
30862;SDS011;17573;55.922;37.540;2023-03-14T10:32:36;7.57;;;5.93;;
30862;SDS011;17573;55.922;37.540;2023-03-14T10:37:52;14.98;;;6.15;;
30862;SDS011;17573;55.922;37.540;2023-03-14T10:40:20;17.25;;;7.07;;
30862;SDS011;17573;55.922;37.540;2023-03-14T10:42:56;12.10;;;8.00;;
30862;SDS011;17573;55.922;37.540;2023-03-14T10:48:05;17.85;;;8.23;;
30862;SDS011;17573;55.922;37.540;2023-03-14T10:50:53;17.95;;;7.55;;
30862;SDS011;17573;55.922;37.540;2023-03-14T10:53:21;8.93;;;5.95;;
30862;SDS011;17573;55.922;37.540;2023-03-14T10:55:48;8.60;;;6.32;;
30862;SDS011;17573;55.922;37.540;2023-03-14T10:58:21;10.40;;;6.72;;
30862;SDS011;17573;55.922;37.540;2023-03-14T11:01:00;11.77;;;7.72;;
30862;SDS011;17573;55.922;37.540;2023-03-14T11:03:31;16.17;;;7.25;;
30862;SDS011;17573;55.922;37.540;2023-03-14T11:05:59;16.35;;;7.72;;
30862;SDS011;17573;55.922;37.540;2023-03-14T11:08:31;9.52;;;7.32;;
30862;SDS011;17573;55.922;37.540;2023-03-14T11:11:14;15.90;;;7.97;;
30862;SDS011;17573;55.922;37.540;2023-03-14T11:37:47;15.68;;;8.35;;
30862;SDS011;17573;55.922;37.540;2023-03-14T11:40:21;12.52;;;7.35;;
30862;SDS011;17573;55.922;37.540;2023-03-14T11:42:59;10.30;;;6.15;;
30862;SDS011;17573;55.922;37.540;2023-03-14T11:45:34;14.70;;;7.07;;
30862;SDS011;17573;55.922;37.540;2023-03-14T11:50:59;10.73;;;6.07;;
30862;SDS011;17573;55.922;37.540;2023-03-14T11:59:30;15.38;;;6.38;;
30862;SDS011;17573;55.922;37.540;2023-03-14T12:02:00;10.45;;;6.43;;
30862;SDS011;17573;55.922;37.540;2023-03-14T12:07:03;7.75;;;5.80;;
30862;SDS011;17573;55.922;37.540;2023-03-14T12:09:35;16.80;;;7.80;;
30862;SDS011;17573;55.922;37.540;2023-03-14T12:12:02;12.35;;;7.18;;
30862;SDS011;17573;55.922;37.540;2023-03-14T12:14:33;7.40;;;5.18;;
30862;SDS011;17573;55.922;37.540;2023-03-14T12:17:07;8.13;;;5.90;;
30862;SDS011;17573;55.922;37.540;2023-03-14T12:19:43;9.45;;;6.18;;
30862;SDS011;17573;55.922;37.540;2023-03-14T12:24:39;10.32;;;6.22;;
30862;SDS011;17573;55.922;37.540;2023-03-14T12:27:12;14.43;;;7.80;;
30862;SDS011;17573;55.922;37.540;2023-03-14T12:29:58;17.30;;;6.82;;
30862;SDS011;17573;55.922;37.540;2023-03-14T12:32:25;10.80;;;6.38;;
30862;SDS011;17573;55.922;37.540;2023-03-14T12:34:51;5.95;;;5.03;;
30862;SDS011;17573;55.922;37.540;2023-03-14T12:37:19;11.63;;;6.13;;
30862;SDS011;17573;55.922;37.540;2023-03-14T12:40:03;13.35;;;6.22;;
30862;SDS011;17573;55.922;37.540;2023-03-14T12:48:50;7.55;;;5.43;;
30862;SDS011;17573;55.922;37.540;2023-03-14T12:51:20;11.85;;;7.13;;
30862;SDS011;17573;55.922;37.540;2023-03-14T12:54:06;12.70;;;7.47;;
30862;SDS011;17573;55.922;37.540;2023-03-14T13:02:00;13.43;;;7.30;;
30862;SDS011;17573;55.922;37.540;2023-03-14T13:04:35;11.02;;;6.28;;
30862;SDS011;17573;55.922;37.540;2023-03-14T13:12:38;16.20;;;6.50;;
30862;SDS011;17573;55.922;37.540;2023-03-14T13:18:11;11.05;;;6.90;;
30862;SDS011;17573;55.922;37.540;2023-03-14T13:23:19;10.45;;;6.05;;
30862;SDS011;17573;55.922;37.540;2023-03-14T13:25:49;11.02;;;7.32;;
30862;SDS011;17573;55.922;37.540;2023-03-14T13:28:15;15.07;;;7.65;;
30862;SDS011;17573;55.922;37.540;2023-03-14T13:30:43;19.02;;;7.05;;
30862;SDS011;17573;55.922;37.540;2023-03-14T13:33:12;14.40;;;7.25;;
30862;SDS011;17573;55.922;37.540;2023-03-14T13:35:41;12.85;;;7.03;;
30862;SDS011;17573;55.922;37.540;2023-03-14T13:38:17;13.65;;;6.07;;
30862;SDS011;17573;55.922;37.540;2023-03-14T13:40:48;10.10;;;6.60;;
30862;SDS011;17573;55.922;37.540;2023-03-14T13:43:16;14.68;;;6.78;;
30862;SDS011;17573;55.922;37.540;2023-03-14T13:46:05;10.85;;;6.63;;
30862;SDS011;17573;55.922;37.540;2023-03-14T13:48:43;13.18;;;6.68;;
30862;SDS011;17573;55.922;37.540;2023-03-14T13:51:20;12.68;;;6.90;;
30862;SDS011;17573;55.922;37.540;2023-03-14T13:53:54;9.73;;;6.18;;
30862;SDS011;17573;55.922;37.540;2023-03-14T13:56:21;15.32;;;5.72;;
30862;SDS011;17573;55.922;37.540;2023-03-14T13:58:49;8.15;;;6.53;;
30862;SDS011;17573;55.922;37.540;2023-03-14T14:01:16;12.93;;;7.85;;
30862;SDS011;17573;55.922;37.540;2023-03-14T14:03:45;30.35;;;7.43;;
30862;SDS011;17573;55.922;37.540;2023-03-14T14:08:56;12.00;;;7.45;;
30862;SDS011;17573;55.922;37.540;2023-03-14T14:13:53;13.20;;;7.03;;
30862;SDS011;17573;55.922;37.540;2023-03-14T14:16:20;9.45;;;6.38;;
30862;SDS011;17573;55.922;37.540;2023-03-14T14:18:48;11.05;;;6.80;;
30862;SDS011;17573;55.922;37.540;2023-03-14T14:21:13;10.32;;;6.63;;
30862;SDS011;17573;55.922;37.540;2023-03-14T14:23:40;22.48;;;7.43;;
30862;SDS011;17573;55.922;37.540;2023-03-14T14:26:06;12.93;;;7.50;;
30862;SDS011;17573;55.922;37.540;2023-03-14T14:28:33;6.75;;;5.43;;
30862;SDS011;17573;55.922;37.540;2023-03-14T14:31:05;10.07;;;6.65;;
30862;SDS011;17573;55.922;37.540;2023-03-14T14:36:17;8.80;;;6.43;;
30862;SDS011;17573;55.922;37.540;2023-03-14T14:38:54;17.02;;;6.78;;
30862;SDS011;17573;55.922;37.540;2023-03-14T14:41:23;14.55;;;7.00;;
30862;SDS011;17573;55.922;37.540;2023-03-14T14:43:52;17.30;;;7.25;;
30862;SDS011;17573;55.922;37.540;2023-03-14T14:46:18;11.45;;;6.03;;
30862;SDS011;17573;55.922;37.540;2023-03-14T14:48:45;11.88;;;6.93;;
30862;SDS011;17573;55.922;37.540;2023-03-14T14:51:22;9.52;;;6.60;;
30862;SDS011;17573;55.922;37.540;2023-03-14T14:53:58;9.02;;;5.57;;
30862;SDS011;17573;55.922;37.540;2023-03-14T14:56:29;13.30;;;7.28;;
30862;SDS011;17573;55.922;37.540;2023-03-14T14:58:58;6.28;;;5.53;;
30862;SDS011;17573;55.922;37.540;2023-03-14T15:01:39;13.57;;;6.50;;
30862;SDS011;17573;55.922;37.540;2023-03-14T15:04:12;8.65;;;5.30;;
30862;SDS011;17573;55.922;37.540;2023-03-14T15:06:41;9.10;;;6.45;;
30862;SDS011;17573;55.922;37.540;2023-03-14T15:09:11;8.65;;;6.25;;
30862;SDS011;17573;55.922;37.540;2023-03-14T15:11:37;25.77;;;7.47;;
30862;SDS011;17573;55.922;37.540;2023-03-14T15:14:02;8.00;;;6.18;;
30862;SDS011;17573;55.922;37.540;2023-03-14T15:16:29;10.15;;;6.50;;
30862;SDS011;17573;55.922;37.540;2023-03-14T15:18:58;9.05;;;6.78;;
30862;SDS011;17573;55.922;37.540;2023-03-14T15:21:25;13.65;;;7.70;;
30862;SDS011;17573;55.922;37.540;2023-03-14T15:23:52;11.68;;;6.45;;
30862;SDS011;17573;55.922;37.540;2023-03-14T15:26:19;10.32;;;6.93;;
30862;SDS011;17573;55.922;37.540;2023-03-14T15:28:46;19.13;;;7.40;;
30862;SDS011;17573;55.922;37.540;2023-03-14T15:31:13;11.40;;;7.47;;
30862;SDS011;17573;55.922;37.540;2023-03-14T15:33:40;9.10;;;6.13;;
30862;SDS011;17573;55.922;37.540;2023-03-14T15:36:13;13.15;;;7.05;;
30862;SDS011;17573;55.922;37.540;2023-03-14T15:38:42;16.40;;;6.53;;
30862;SDS011;17573;55.922;37.540;2023-03-14T15:41:08;7.10;;;5.15;;
30862;SDS011;17573;55.922;37.540;2023-03-14T15:43:34;11.07;;;6.55;;
30862;SDS011;17573;55.922;37.540;2023-03-14T15:46:00;8.60;;;6.60;;
30862;SDS011;17573;55.922;37.540;2023-03-14T15:48:26;9.25;;;5.80;;
30862;SDS011;17573;55.922;37.540;2023-03-14T15:50:52;14.10;;;6.70;;
30862;SDS011;17573;55.922;37.540;2023-03-14T15:53:17;12.65;;;6.85;;
30862;SDS011;17573;55.922;37.540;2023-03-14T15:55:43;8.18;;;5.72;;
30862;SDS011;17573;55.922;37.540;2023-03-14T15:58:11;10.23;;;7.65;;
30862;SDS011;17573;55.922;37.540;2023-03-14T16:00:41;14.98;;;6.80;;
30862;SDS011;17573;55.922;37.540;2023-03-14T16:03:07;10.43;;;6.53;;
30862;SDS011;17573;55.922;37.540;2023-03-14T16:05:33;12.70;;;6.97;;
30862;SDS011;17573;55.922;37.540;2023-03-14T16:07:59;13.43;;;7.60;;
30862;SDS011;17573;55.922;37.540;2023-03-14T16:10:26;8.52;;;6.22;;